Time;durP1;ratioP1;P1;durP2;ratioP2;P2;SDS_P1;SDS_P2;PMS_P1;PMS_P2;Temp;Humidity;BMP_temperature;BMP_pressure;BME280_temperature;BME280_humidity;BME280_pressure;Samples;Min_cycle;Max_cycle;Signal;HPM_P1;HPM_P2
2022/02/14 00:00:02;;;;;;;14.17;7.97;;;;;;;-2.60;76.70;96376.77;1716489;84;21001;-80
2022/02/14 00:02:32;;;;;;;13.53;8.47;;;;;;;-2.61;76.82;96376.31;1714891;84;21034;-80
2022/02/14 00:05:02;;;;;;;15.47;8.63;;;;;;;-2.68;76.86;96379.02;1716444;84;21009;-80
2022/02/14 00:07:27;;;;;;;11.83;7.60;;;;;;;-2.63;76.62;96371.06;1716293;84;21032;-79
2022/02/14 00:09:53;;;;;;;14.33;7.77;;;;;;;-2.57;76.67;96376.02;1686341;84;21088;-80
2022/02/14 00:12:20;;;;;;;12.53;7.57;;;;;;;-2.56;76.23;96372.23;1716518;84;20993;-82
2022/02/14 00:14:46;;;;;;;12.10;6.87;;;;;;;-2.55;75.94;96373.11;1716637;83;21495;-79
2022/02/14 00:17:13;;;;;;;13.77;7.47;;;;;;;-2.68;75.33;96371.27;1716178;84;21021;-79
2022/02/14 00:19:39;;;;;;;13.47;7.53;;;;;;;-2.77;75.77;96381.59;1716540;83;21072;-80
2022/02/14 00:22:05;;;;;;;11.93;7.60;;;;;;;-2.83;75.88;96374.46;1716390;83;21029;-80
2022/02/14 00:24:32;;;;;;;10.90;6.77;;;;;;;-2.84;75.88;96375.28;1717836;83;21100;-80
2022/02/14 00:26:58;;;;;;;14.50;7.90;;;;;;;-2.90;75.82;96374.99;1721746;83;21029;-80
2022/02/14 00:29:26;;;;;;;12.57;7.67;;;;;;;-2.87;76.42;96368.28;1721829;83;20997;-79
2022/02/14 00:31:54;;;;;;;14.33;7.43;;;;;;;-2.90;76.90;96367.24;1722003;83;21471;-80
2022/02/14 00:34:20;;;;;;;14.87;9.30;;;;;;;-2.91;77.74;96373.23;1721439;83;21045;-80
2022/02/14 00:36:47;;;;;;;15.07;8.33;;;;;;;-2.99;77.98;96363.85;1721723;83;21084;-80
2022/02/14 00:39:14;;;;;;;14.43;7.77;;;;;;;-2.98;77.74;96366.02;1721510;83;21108;-80
2022/02/14 00:41:40;;;;;;;9.80;6.77;;;;;;;-2.96;77.67;96365.69;1721850;83;20965;-79
2022/02/14 00:44:07;;;;;;;11.43;6.90;;;;;;;-3.03;77.08;96360.64;1721848;83;21543;-80
2022/02/14 00:46:34;;;;;;;10.57;6.73;;;;;;;-3.07;77.41;96367.79;1721815;83;21044;-80
2022/02/14 00:49:01;;;;;;;12.13;7.03;;;;;;;-3.11;78.46;96359.00;1721288;83;20993;-80
2022/02/14 00:51:27;;;;;;;12.73;6.97;;;;;;;-3.11;77.88;96361.58;1722092;83;21036;-80
2022/02/14 00:53:54;;;;;;;12.50;7.20;;;;;;;-3.04;77.81;96357.59;1721824;83;20989;-80
2022/02/14 00:56:20;;;;;;;11.07;6.43;;;;;;;-3.00;77.46;96356.91;1721689;83;20996;-80
2022/02/14 00:58:47;;;;;;;11.80;6.83;;;;;;;-3.03;76.91;96356.77;1721869;82;21053;-80
2022/02/14 01:01:14;;;;;;;16.60;7.90;;;;;;;-3.08;76.98;96351.39;1721727;83;21036;-80
2022/02/14 01:03:40;;;;;;;10.57;6.63;;;;;;;-3.12;77.63;96348.63;1721343;82;21029;-80
2022/02/14 01:06:08;;;;;;;10.67;6.57;;;;;;;-3.08;77.41;96344.94;1721969;83;21080;-80
2022/02/14 01:08:35;;;;;;;13.13;6.37;;;;;;;-3.08;77.57;96334.61;1721316;83;21125;-80
2022/02/14 01:11:01;;;;;;;11.17;6.90;;;;;;;-3.22;77.72;96338.70;1721529;83;21032;-80
2022/02/14 01:13:28;;;;;;;14.43;7.27;;;;;;;-3.21;77.57;96327.55;1721756;82;21068;-80
2022/02/14 01:15:55;;;;;;;12.57;8.10;;;;;;;-3.11;77.90;96328.02;1721640;83;21487;-80
2022/02/14 01:18:21;;;;;;;14.33;8.50;;;;;;;-3.09;78.15;96324.23;1721398;83;21005;-80
2022/02/14 01:20:48;;;;;;;11.07;7.30;;;;;;;-3.16;78.55;96318.31;1721753;83;21084;-80
2022/02/14 01:23:15;;;;;;;11.00;6.33;;;;;;;-3.21;77.93;96327.13;1721678;83;21020;-80
2022/02/14 01:25:41;;;;;;;11.37;6.77;;;;;;;-3.20;77.98;96326.34;1721764;82;21009;-80
2022/02/14 01:28:08;;;;;;;14.13;7.63;;;;;;;-3.17;78.09;96322.59;1721724;83;21068;-80
2022/02/14 01:30:35;;;;;;;9.63;5.87;;;;;;;-3.10;78.05;96319.87;1721817;82;21009;-80
2022/02/14 01:33:01;;;;;;;12.07;6.57;;;;;;;-3.15;77.39;96317.48;1721681;82;21459;-79
2022/02/14 01:35:28;;;;;;;13.17;7.30;;;;;;;-3.21;77.38;96314.23;1721845;83;21483;-79
2022/02/14 01:37:55;;;;;;;13.03;7.50;;;;;;;-3.16;77.67;96313.16;1721548;83;21020;-80
2022/02/14 01:40:23;;;;;;;9.67;6.37;;;;;;;-3.16;77.11;96310.57;1721538;83;21084;-80
2022/02/14 01:42:49;;;;;;;11.40;6.73;;;;;;;-3.26;77.65;96305.39;1721935;83;21005;-80
2022/02/14 01:45:16;;;;;;;14.73;7.37;;;;;;;-3.34;77.34;96306.75;1721715;83;21024;-80
2022/02/14 01:47:42;;;;;;;11.97;6.90;;;;;;;-3.40;78.47;96303.48;1721585;83;21048;-80
2022/02/14 01:50:12;;;;;;;10.50;6.60;;;;;;;-3.50;79.18;96303.46;1721350;83;21507;-80
2022/02/14 01:52:40;;;;;;;12.83;6.80;;;;;;;-3.58;79.20;96300.94;1721533;83;21080;-80
2022/02/14 01:55:10;;;;;;;12.23;6.23;;;;;;;-3.46;79.28;96298.44;1721774;83;21455;-79
2022/02/14 01:57:37;;;;;;;12.60;7.13;;;;;;;-3.34;79.17;96286.98;1721532;83;21032;-83
2022/02/14 02:00:10;;;;;;;13.20;6.40;;;;;;;-3.27;78.57;96292.02;1721547;83;21059;-80
2022/02/14 02:02:39;;;;;;;10.37;6.30;;;;;;;-3.19;78.25;96280.76;1721487;83;21017;-80
2022/02/14 02:05:07;;;;;;;11.63;7.23;;;;;;;-3.15;78.08;96274.52;1721551;83;21021;-80
2022/02/14 02:07:33;;;;;;;13.10;6.30;;;;;;;-3.12;77.80;96272.06;1721987;82;21072;-81
2022/02/14 02:10:00;;;;;;;10.77;6.40;;;;;;;-3.20;76.92;96269.55;1721764;82;21506;-80
2022/02/14 02:12:27;;;;;;;11.57;6.03;;;;;;;-3.35;76.59;96274.91;1721284;83;21053;-80
2022/02/14 02:14:59;;;;;;;11.40;5.93;;;;;;;-3.42;76.57;96273.27;1721790;82;20981;-80
2022/02/14 02:17:36;;;;;;;10.27;5.33;;;;;;;-3.49;76.76;96268.22;1721977;82;21514;-80
2022/02/14 02:20:08;;;;;;;11.83;5.43;;;;;;;-3.57;77.36;96265.29;1721133;83;21060;-80
2022/02/14 02:22:35;;;;;;;13.57;7.10;;;;;;;-3.71;77.14;96257.31;1721629;83;21079;-80
2022/02/14 02:25:02;;;;;;;11.00;6.77;;;;;;;-3.72;77.45;96263.30;1721733;83;21029;-80
2022/02/14 02:27:29;;;;;;;13.63;7.20;;;;;;;-3.73;77.89;96255.06;1721598;82;21091;-80
2022/02/14 02:29:58;;;;;;;10.57;5.63;;;;;;;-3.68;78.04;96263.89;1721864;83;21044;-80
2022/02/14 02:32:28;;;;;;;12.27;6.00;;;;;;;-3.70;77.79;96261.68;1721697;83;21092;-80
2022/02/14 02:34:56;;;;;;;10.83;6.10;;;;;;;-3.75;77.73;96260.58;1721378;82;21016;-80
2022/02/14 02:37:23;;;;;;;11.63;6.60;;;;;;;-3.87;77.63;96257.42;1721784;83;21037;-79
2022/02/14 02:39:49;;;;;;;11.30;4.50;;;;;;;-3.89;78.56;96256.05;1721519;83;21052;-80
2022/02/14 02:42:19;;;;;;;12.27;6.20;;;;;;;-3.82;78.43;96259.81;1721907;83;21059;-80
2022/02/14 02:44:46;;;;;;;10.70;6.53;;;;;;;-3.89;77.89;96262.49;1721840;83;21008;-80
2022/02/14 02:47:16;;;;;;;10.80;6.13;;;;;;;-3.93;78.12;96262.77;1721734;83;21526;-81
2022/02/14 02:49:44;;;;;;;15.33;7.00;;;;;;;-3.90;78.58;96254.30;1721590;82;21072;-80
2022/02/14 02:52:13;;;;;;;12.53;6.97;;;;;;;-3.82;78.85;96257.23;1721957;83;21056;-80
2022/02/14 02:54:40;;;;;;;11.33;6.83;;;;;;;-3.77;79.20;96264.77;1721781;83;21056;-79
2022/02/14 02:57:07;;;;;;;10.17;6.77;;;;;;;-3.90;79.59;96263.32;1721613;83;21144;-80
2022/02/14 02:59:35;;;;;;;12.10;6.40;;;;;;;-3.93;79.55;96257.61;1722160;82;21064;-79
2022/02/14 03:02:05;;;;;;;10.80;6.47;;;;;;;-3.81;79.64;96246.97;1721749;83;21498;-80
2022/02/14 03:04:32;;;;;;;12.07;6.80;;;;;;;-3.74;79.08;96247.73;1721780;83;21040;-80
2022/02/14 03:06:58;;;;;;;10.63;6.03;;;;;;;-3.68;79.02;96249.70;1721923;83;21012;-80
2022/02/14 03:09:25;;;;;;;10.17;6.70;;;;;;;-3.71;78.21;96254.73;1693343;83;21036;-80
2022/02/14 03:11:51;;;;;;;11.70;6.53;;;;;;;-3.71;78.17;96250.86;1721642;82;21032;-80
2022/02/14 03:14:18;;;;;;;10.00;6.30;;;;;;;-3.70;78.10;96250.07;1721786;83;21096;-79
2022/02/14 03:16:45;;;;;;;8.87;5.63;;;;;;;-3.78;77.68;96250.09;1721835;83;21051;-79
2022/02/14 03:19:12;;;;;;;9.17;5.60;;;;;;;-3.78;78.26;96247.52;1721782;83;21483;-79
2022/02/14 03:21:39;;;;;;;10.13;6.03;;;;;;;-3.90;78.08;96250.43;1722016;83;21535;-79
2022/02/14 03:24:06;;;;;;;10.90;6.53;;;;;;;-3.97;77.72;96254.40;1721490;83;21044;-79
2022/02/14 03:26:34;;;;;;;11.77;6.80;;;;;;;-3.94;78.33;96245.52;1717650;82;21052;-79
2022/02/14 03:29:00;;;;;;;11.83;7.00;;;;;;;-3.95;78.98;96249.33;1716313;84;21076;-79
2022/02/14 03:31:27;;;;;;;9.03;5.57;;;;;;;-3.93;79.15;96245.14;1716642;83;21056;-79
2022/02/14 03:33:53;;;;;;;10.87;5.80;;;;;;;-4.01;78.31;96245.16;1716325;83;21510;-79
2022/02/14 03:36:22;;;;;;;9.80;5.83;;;;;;;-4.08;78.72;96253.02;1716440;83;21498;-79
2022/02/14 03:38:50;;;;;;;11.23;6.83;;;;;;;-4.04;78.65;96254.03;1716615;84;21017;-79
2022/02/14 03:41:18;;;;;;;11.30;6.47;;;;;;;-3.99;78.94;96248.28;1716641;84;21029;-79
2022/02/14 03:43:45;;;;;;;11.93;6.20;;;;;;;-3.97;78.57;96240.63;1716234;83;21510;-79
2022/02/14 03:46:12;;;;;;;8.77;5.57;;;;;;;-4.02;78.50;96253.30;1716538;83;21054;-79
2022/02/14 03:48:38;;;;;;;10.17;6.50;;;;;;;-4.11;78.24;96252.84;1716497;84;21029;-79
2022/02/14 03:51:05;;;;;;;10.30;5.30;;;;;;;-4.21;78.21;96243.82;1715945;83;21040;-79
2022/02/14 03:53:32;;;;;;;9.77;5.53;;;;;;;-4.11;79.08;96243.83;1716526;83;21069;-79
2022/02/14 03:55:59;;;;;;;9.10;5.30;;;;;;;-4.23;78.94;96247.13;1716156;83;21029;-79
2022/02/14 03:58:26;;;;;;;10.53;6.37;;;;;;;-4.30;78.96;96238.21;1716381;84;21013;-79
2022/02/14 04:00:53;;;;;;;11.13;6.37;;;;;;;-4.23;79.55;96243.27;1716526;83;21020;-79
2022/02/14 04:03:19;;;;;;;10.33;5.40;;;;;;;-4.17;79.69;96239.68;1716203;84;21112;-79
2022/02/14 04:05:46;;;;;;;12.23;6.67;;;;;;;-4.12;79.47;96235.63;1716296;83;20993;-79
2022/02/14 04:08:13;;;;;;;7.67;5.20;;;;;;;-4.03;79.57;96234.79;1716551;83;21061;-79
2022/02/14 04:10:40;;;;;;;9.83;5.73;;;;;;;-3.96;79.08;96228.20;1716386;84;21044;-79
2022/02/14 04:13:08;;;;;;;6.93;4.80;;;;;;;-4.06;78.87;96224.72;1716397;83;21049;-79
2022/02/14 04:15:35;;;;;;;9.90;5.53;;;;;;;-4.14;78.51;96230.39;1716403;83;21545;-78
2022/02/14 04:18:02;;;;;;;8.67;5.37;;;;;;;-4.17;78.57;96228.09;1716041;84;21033;-79
2022/02/14 04:20:29;;;;;;;10.23;5.60;;;;;;;-4.09;79.12;96222.89;1716424;84;20993;-78
2022/02/14 04:22:56;;;;;;;9.37;5.93;;;;;;;-3.99;79.22;96226.38;1716252;83;20997;-79
2022/02/14 04:25:23;;;;;;;10.17;5.33;;;;;;;-3.98;79.00;96219.14;1717006;82;21095;-82
2022/02/14 04:27:50;;;;;;;10.87;5.60;;;;;;;-3.94;78.92;96220.15;1721822;83;21060;-79
2022/02/14 04:30:16;;;;;;;8.10;3.83;;;;;;;-3.93;78.54;96218.94;1721492;83;21042;-80
2022/02/14 04:32:43;;;;;;;10.70;5.70;;;;;;;-3.98;78.05;96218.23;1721940;83;21075;-78
2022/02/14 04:35:10;;;;;;;8.83;5.57;;;;;;;-4.16;77.59;96228.55;1721649;82;21040;-79
2022/02/14 04:37:36;;;;;;;15.73;9.07;;;;;;;-4.29;77.86;96227.08;1721770;83;21016;-78
2022/02/14 04:40:05;;;;;;;15.30;8.93;;;;;;;-4.28;79.06;96218.56;1721771;83;21028;-78
2022/02/14 04:42:31;;;;;;;15.00;9.47;;;;;;;-4.26;79.14;96218.24;1721810;83;21492;-77
2022/02/14 04:44:58;;;;;;;9.73;5.50;;;;;;;-4.33;79.31;96217.84;1721773;82;21077;-78
2022/02/14 04:47:24;;;;;;;9.93;5.67;;;;;;;-4.39;78.93;96222.30;1721641;83;21517;-78
2022/02/14 04:49:51;;;;;;;11.47;5.27;;;;;;;-4.39;79.13;96219.72;1721779;83;21076;-78
2022/02/14 04:52:17;;;;;;;8.83;5.07;;;;;;;-4.31;79.34;96213.65;1721871;83;21032;-78
2022/02/14 04:54:44;;;;;;;9.93;5.67;;;;;;;-4.28;79.10;96222.43;1721650;83;21012;-78
2022/02/14 04:57:10;;;;;;;11.60;5.07;;;;;;;-4.32;78.58;96224.78;1721872;82;21025;-78
2022/02/14 04:59:37;;;;;;;9.43;5.70;;;;;;;-4.26;79.20;96227.25;1722081;82;20993;-79
2022/02/14 05:02:04;;;;;;;9.40;5.37;;;;;;;-4.25;78.87;96225.14;1721728;82;21541;-79
2022/02/14 05:04:31;;;;;;;9.50;5.33;;;;;;;-4.23;78.90;96225.23;1721818;83;20997;-78
2022/02/14 05:06:57;;;;;;;9.90;6.23;;;;;;;-4.17;78.84;96233.24;1721847;82;20989;-79
2022/02/14 05:09:24;;;;;;;17.33;8.93;;;;;;;-4.22;79.02;96222.70;1722032;83;21088;-79
2022/02/14 05:11:50;;;;;;;10.00;5.57;;;;;;;-4.17;78.94;96227.67;1721845;83;21017;-79
2022/02/14 05:14:17;;;;;;;8.93;4.93;;;;;;;-4.18;78.45;96227.63;1721421;83;21085;-79
2022/02/14 05:16:44;;;;;;;7.93;4.90;;;;;;;-4.24;78.30;96229.89;1722045;83;21013;-79
2022/02/14 05:19:10;;;;;;;11.70;6.37;;;;;;;-4.28;78.34;96231.83;1721723;83;21001;-78
2022/02/14 05:21:37;;;;;;;6.50;3.33;;;;;;;-4.24;78.85;96232.47;1721622;83;21435;-78
2022/02/14 05:24:05;;;;;;;6.77;3.83;;;;;;;-4.32;78.67;96238.53;1722034;83;21033;-77
2022/02/14 05:26:31;;;;;;;10.37;5.23;;;;;;;-4.49;78.37;96233.84;1721645;83;21001;-79
2022/02/14 05:28:58;;;;;;;9.47;4.87;;;;;;;-4.55;78.86;96236.13;1721654;83;21066;-75
2022/02/14 05:31:26;;;;;;;10.13;5.30;;;;;;;-4.53;78.81;96234.52;1721789;83;21073;-75
2022/02/14 05:33:53;;;;;;;9.43;5.57;;;;;;;-4.42;79.22;96240.19;1721751;83;21064;-75
2022/02/14 05:36:19;;;;;;;9.83;5.77;;;;;;;-4.42;79.02;96237.61;1721677;83;21032;-76
2022/02/14 05:38:47;;;;;;;11.40;5.33;;;;;;;-4.33;79.36;96244.89;1721659;83;21036;-76
2022/02/14 05:41:15;;;;;;;8.90;4.53;;;;;;;-4.26;79.34;96240.14;1721682;83;21049;-75
2022/02/14 05:43:42;;;;;;;11.43;6.13;;;;;;;-4.32;79.69;96241.11;1721603;83;21001;-75
2022/02/14 05:46:13;;;;;;;11.63;5.50;;;;;;;-4.38;80.17;96242.12;1721847;83;21428;-75
2022/02/14 05:48:38;;;;;;;8.93;5.03;;;;;;;-4.35;79.74;96246.13;1721876;83;20997;-75
2022/02/14 05:51:04;;;;;;;14.90;5.63;;;;;;;-4.36;79.65;96249.11;1721474;82;21033;-75
2022/02/14 05:53:31;;;;;;;9.33;5.00;;;;;;;-4.28;79.67;96250.77;1721806;83;21024;-75
2022/02/14 05:55:57;;;;;;;10.17;5.60;;;;;;;-4.18;79.71;96245.66;1721811;83;21012;-75
2022/02/14 05:58:24;;;;;;;8.90;5.93;;;;;;;-4.13;79.69;96254.49;1721356;83;21004;-76
2022/02/14 06:00:50;;;;;;;9.37;5.40;;;;;;;-4.03;79.86;96250.64;1721516;83;21040;-77
2022/02/14 06:03:16;;;;;;;8.60;5.47;;;;;;;-4.04;79.11;96249.76;1721409;82;21567;-74
2022/02/14 06:05:43;;;;;;;14.80;7.07;;;;;;;-4.10;78.70;96253.76;1720993;83;21036;-72
2022/02/14 06:08:09;;;;;;;8.77;4.83;;;;;;;-4.08;79.20;96251.73;1720510;83;21582;-79
2022/02/14 06:10:36;;;;;;;11.17;4.80;;;;;;;-4.09;78.96;96257.67;1719410;83;21182;-74
2022/02/14 06:13:03;;;;;;;9.53;5.67;;;;;;;-4.12;79.28;96255.38;1720449;83;21111;-73
2022/02/14 06:15:29;;;;;;;13.77;8.00;;;;;;;-4.03;79.49;96254.50;1720924;83;21079;-74
2022/02/14 06:17:56;;;;;;;20.70;11.00;;;;;;;-3.96;80.11;96251.00;1720881;82;21029;-73
2022/02/14 06:20:22;;;;;;;25.43;13.37;;;;;;;-3.95;80.25;96262.22;1721657;83;21024;-75
2022/02/14 06:22:49;;;;;;;19.63;11.43;;;;;;;-3.86;80.40;96247.58;1721533;83;21020;-71
2022/02/14 06:25:15;;;;;;;11.87;5.80;;;;;;;-3.77;80.01;96248.02;1720952;83;21491;-69
2022/02/14 06:27:42;;;;;;;12.20;6.40;;;;;;;-3.75;79.68;96247.27;1720884;83;21071;-77
2022/02/14 06:30:10;;;;;;;11.80;6.30;;;;;;;-3.71;80.33;96247.00;1720835;82;21079;-71
2022/02/14 06:32:36;;;;;;;10.97;5.83;;;;;;;-3.66;80.48;96245.92;1720500;83;21067;-73
2022/02/14 06:35:04;;;;;;;20.03;11.50;;;;;;;-3.59;80.47;96251.84;1720833;83;21072;-80
2022/02/14 06:37:31;;;;;;;45.03;23.57;;;;;;;-3.59;80.45;96244.11;1720593;83;21111;-76
2022/02/14 06:39:58;;;;;;;131.63;50.27;;;;;;;-3.57;81.56;96248.53;1720505;83;21075;-75
2022/02/14 06:42:24;;;;;;;35.27;19.73;;;;;;;-3.48;80.99;96248.05;1720562;83;21059;-82
2022/02/14 06:44:51;;;;;;;47.50;25.27;;;;;;;-3.44;80.91;96243.52;1720723;83;21196;-76
2022/02/14 06:47:17;;;;;;;39.87;20.77;;;;;;;-3.38;81.29;96242.48;1719587;83;21072;-74
2022/02/14 06:49:44;;;;;;;34.93;20.87;;;;;;;-3.20;81.32;96243.75;1720434;83;21069;-78
2022/02/14 06:52:11;;;;;;;38.10;20.07;;;;;;;-2.97;81.22;96246.05;1720209;83;21064;-76
2022/02/14 06:54:37;;;;;;;15.57;9.53;;;;;;;-2.83;80.46;96238.88;1720444;83;21064;-80
2022/02/14 06:57:04;;;;;;;26.80;16.37;;;;;;;-2.83;79.90;96239.75;1720748;83;21558;-84
2022/02/14 06:59:31;;;;;;;35.20;20.73;;;;;;;-2.76;80.22;96234.45;1720104;83;21555;-73
2022/02/14 07:01:57;;;;;;;46.87;26.50;;;;;;;-2.69;79.96;96235.61;1720848;83;21075;-75
2022/02/14 07:04:26;;;;;;;35.43;22.90;;;;;;;-2.56;79.71;96235.72;1721444;83;21029;-76
2022/02/14 07:06:52;;;;;;;33.57;19.70;;;;;;;-2.39;79.75;96237.30;1720112;83;21091;-77
2022/02/14 07:09:19;;;;;;;30.53;18.83;;;;;;;-2.24;79.36;96230.17;1720595;83;21044;-78
2022/02/14 07:11:45;;;;;;;31.07;19.17;;;;;;;-2.05;79.19;96229.61;1720653;83;21629;-76
2022/02/14 07:14:12;;;;;;;31.10;18.40;;;;;;;-1.88;79.18;96228.57;1720214;83;21119;-75
2022/02/14 07:16:43;;;;;;;33.87;19.27;;;;;;;-1.77;77.95;96231.15;1721158;83;21369;-75
2022/02/14 07:19:12;;;;;;;31.30;17.47;;;;;;;-1.72;77.44;96221.41;1720349;83;21087;-78
2022/02/14 07:21:38;;;;;;;45.73;27.50;;;;;;;-1.67;77.17;96228.51;1720836;83;21008;-76
2022/02/14 07:24:07;;;;;;;26.30;14.17;;;;;;;-1.62;77.23;96215.34;1721582;83;21022;-78
2022/02/14 07:26:33;;;;;;;34.50;18.90;;;;;;;-1.54;76.89;96217.83;1720275;83;21581;-81
2022/02/14 07:29:00;;;;;;;32.57;19.20;;;;;;;-1.53;76.76;96222.16;1720805;83;21124;-71
2022/02/14 07:31:27;;;;;;;27.17;16.27;;;;;;;-1.49;76.96;96216.68;1720860;83;21059;-77
2022/02/14 07:33:53;;;;;;;29.20;19.43;;;;;;;-1.52;77.00;96214.86;1721289;83;21036;-77
2022/02/14 07:36:21;;;;;;;48.80;29.80;;;;;;;-1.46;77.03;96209.44;1720881;83;21145;-75
2022/02/14 07:38:47;;;;;;;80.33;55.30;;;;;;;-1.44;76.85;96217.73;1721187;83;21052;-78
2022/02/14 07:41:14;;;;;;;48.67;30.77;;;;;;;-1.35;77.10;96206.86;1720808;83;21182;-75
2022/02/14 07:43:40;;;;;;;37.33;25.07;;;;;;;-1.14;77.41;96209.34;1720491;83;21115;-76
2022/02/14 07:46:07;;;;;;;42.33;24.17;;;;;;;-0.94;77.25;96204.87;1721406;83;21510;-78
2022/02/14 07:48:34;;;;;;;38.17;23.43;;;;;;;-0.78;77.09;96203.30;1720499;83;21068;-77
2022/02/14 07:51:00;;;;;;;35.10;22.17;;;;;;;-0.70;76.08;96206.16;1721176;83;21036;-74
2022/02/14 07:53:26;;;;;;;29.70;17.47;;;;;;;-0.69;75.97;96202.72;1721461;83;21084;-81
2022/02/14 07:55:53;;;;;;;32.90;18.93;;;;;;;-0.59;75.71;96202.20;1720340;83;21346;-74
2022/02/14 07:58:19;;;;;;;33.40;19.10;;;;;;;-0.38;76.32;96186.89;1721318;83;21028;-73
2022/02/14 08:00:46;;;;;;;23.17;15.77;;;;;;;-0.20;76.09;96188.81;1721741;83;21491;-72
2022/02/14 08:03:13;;;;;;;17.33;11.07;;;;;;;-0.03;76.03;96183.72;1720843;83;21131;-73
2022/02/14 08:05:39;;;;;;;22.00;12.77;;;;;;;0.19;75.03;96188.30;1721076;83;21080;-70
2022/02/14 08:08:06;;;;;;;19.97;12.83;;;;;;;0.33;74.01;96177.92;1720314;83;21059;-69
2022/02/14 08:10:32;;;;;;;27.63;17.47;;;;;;;0.52;73.28;96179.76;1721544;83;20993;-70
2022/02/14 08:12:59;;;;;;;26.97;17.37;;;;;;;0.66;72.93;96177.58;1721731;83;21021;-71
2022/02/14 08:15:25;;;;;;;23.50;14.70;;;;;;;0.76;73.07;96173.11;1721851;83;21483;-71
2022/02/14 08:17:52;;;;;;;22.27;13.23;;;;;;;0.88;71.90;96168.66;1721817;83;21013;-71
2022/02/14 08:20:18;;;;;;;25.70;15.47;;;;;;;1.03;71.92;96169.08;1719870;83;21071;-75
2022/02/14 08:22:46;;;;;;;21.83;13.20;;;;;;;1.17;69.69;96169.04;1721169;83;21091;-71
2022/02/14 08:25:13;;;;;;;19.50;8.83;;;;;;;1.30;70.33;96164.62;1720722;83;21059;-77
2022/02/14 08:27:39;;;;;;;21.47;11.93;;;;;;;1.47;70.56;96161.16;1721073;83;21021;-78
2022/02/14 08:30:08;;;;;;;14.97;9.07;;;;;;;1.62;70.63;96154.16;1721706;83;21044;-76
2022/02/14 08:32:35;;;;;;;19.23;8.87;;;;;;;1.75;69.18;96150.57;1721588;83;21506;-73
2022/02/14 08:35:01;;;;;;;18.67;9.00;;;;;;;1.91;69.71;96151.37;1721277;83;20997;-74
2022/02/14 08:37:28;;;;;;;17.37;9.83;;;;;;;2.08;69.87;96143.97;1720952;83;21108;-79
2022/02/14 08:39:54;;;;;;;15.80;9.17;;;;;;;2.25;69.33;96140.03;1721542;83;21115;-72
2022/02/14 08:42:21;;;;;;;14.57;7.97;;;;;;;2.40;69.02;96134.71;1720169;82;21071;-74
2022/02/14 08:44:47;;;;;;;16.57;8.07;;;;;;;2.55;68.60;96132.00;1721277;83;21067;-75
2022/02/14 08:47:14;;;;;;;15.07;8.47;;;;;;;2.68;66.17;96134.43;1720288;83;21614;-74
2022/02/14 08:49:40;;;;;;;15.77;8.93;;;;;;;2.77;66.11;96127.21;1721235;83;21013;-70
2022/02/14 08:52:07;;;;;;;18.03;8.93;;;;;;;2.94;66.99;96128.86;1721308;83;21060;-75
2022/02/14 08:54:34;;;;;;;14.07;8.57;;;;;;;3.08;64.97;96119.58;1721291;83;21151;-73
2022/02/14 08:57:01;;;;;;;13.47;8.30;;;;;;;3.21;66.16;96118.95;1720895;83;21478;-73
2022/02/14 08:59:28;;;;;;;14.23;7.80;;;;;;;3.36;66.26;96118.78;1721303;83;21550;-72
2022/02/14 09:01:56;;;;;;;32.33;17.60;;;;;;;3.50;63.72;96108.56;1721772;83;21005;-76
2022/02/14 09:04:23;;;;;;;40.23;26.43;;;;;;;3.57;63.27;96112.61;1720576;83;21166;-73
2022/02/14 09:06:49;;;;;;;44.37;22.63;;;;;;;3.68;63.12;96107.16;1721026;83;21095;-77
2022/02/14 09:09:16;;;;;;;33.20;18.53;;;;;;;3.82;64.06;96109.97;1721894;83;21013;-72
2022/02/14 09:11:42;;;;;;;119.67;60.40;;;;;;;3.93;62.93;96106.64;1721249;83;21029;-74
2022/02/14 09:14:09;;;;;;;207.03;104.93;;;;;;;4.04;63.31;96108.57;1720254;83;21139;-72
2022/02/14 09:16:36;;;;;;;76.13;50.77;;;;;;;4.17;62.88;96104.84;1721004;83;21047;-70
2022/02/14 09:19:03;;;;;;;63.53;42.77;;;;;;;4.27;61.33;96104.11;1720557;83;21116;-77
2022/02/14 09:21:30;;;;;;;84.97;53.13;;;;;;;4.40;62.57;96102.54;1720672;83;21558;-77
2022/02/14 09:23:56;;;;;;;25.07;18.97;;;;;;;4.51;61.94;96103.14;1721758;83;21056;-73
2022/02/14 09:26:23;;;;;;;20.73;14.63;;;;;;;4.60;60.63;96103.67;1721162;83;21648;-72
2022/02/14 09:28:50;;;;;;;12.43;8.63;;;;;;;4.73;61.27;96102.96;1707097;83;21002;-77
2022/02/14 09:31:17;;;;;;;14.67;9.33;;;;;;;4.81;57.98;96100.44;1694362;83;21049;-73
2022/02/14 09:33:43;;;;;;;11.70;9.10;;;;;;;4.88;57.81;96094.42;1707058;83;21032;-74
2022/02/14 09:36:11;;;;;;;11.07;7.67;;;;;;;5.00;56.33;96101.53;1702913;84;21610;-70
2022/02/14 09:38:38;;;;;;;11.07;8.83;;;;;;;5.08;56.19;96100.31;1708522;83;21043;-71
2022/02/14 09:41:04;;;;;;;14.00;12.50;;;;;;;5.15;55.32;96093.85;1719673;83;21076;-73
2022/02/14 09:43:35;;;;;;;9.57;6.77;;;;;;;5.26;55.10;96091.77;1721139;83;21021;-70
2022/02/14 09:46:04;;;;;;;10.83;6.43;;;;;;;5.37;54.47;96084.92;1720801;83;21068;-72
2022/02/14 09:48:33;;;;;;;8.77;5.90;;;;;;;5.48;53.17;96088.50;1693919;83;21061;-72
2022/02/14 09:51:00;;;;;;;11.70;7.10;;;;;;;5.54;51.18;96085.05;1667928;84;21030;-69
2022/02/14 09:53:27;;;;;;;10.20;7.07;;;;;;;5.59;52.64;96083.35;1694585;84;21526;-73
2022/02/14 09:55:53;;;;;;;9.37;6.83;;;;;;;5.67;52.45;96085.63;1694268;83;21578;-75
2022/02/14 09:58:20;;;;;;;11.17;6.60;;;;;;;5.74;49.69;96085.22;1696613;83;21042;-73
2022/02/14 10:00:47;;;;;;;10.43;7.43;;;;;;;5.90;52.28;96077.08;1688297;84;21069;-71
2022/02/14 10:03:22;;;;;;;9.80;6.40;;;;;;;6.04;53.14;96078.06;1675241;84;21492;-71
2022/02/14 10:05:53;;;;;;;12.63;7.60;;;;;;;6.12;51.63;96072.42;1714773;84;21546;-70
2022/02/14 10:08:26;;;;;;;12.27;7.30;;;;;;;6.22;52.76;96067.72;1714221;83;21508;-70
2022/02/14 10:10:57;;;;;;;15.87;7.77;;;;;;;6.34;52.48;96064.27;1714646;83;21117;-71
2022/02/14 10:13:37;;;;;;;10.93;8.50;;;;;;;6.43;51.04;96055.59;1711208;83;21102;-70
2022/02/14 10:16:09;;;;;;;11.40;6.80;;;;;;;6.44;50.00;96052.95;1714848;83;21076;-70
2022/02/14 10:18:39;;;;;;;12.93;7.87;;;;;;;6.54;50.45;96048.64;1714910;83;21110;-70
2022/02/14 10:21:25;;;;;;;9.87;6.80;;;;;;;6.58;49.74;96049.11;1713855;83;21145;-70
2022/02/14 10:24:02;;;;;;;11.30;7.63;;;;;;;6.57;48.56;96041.22;1714219;84;21117;-70
2022/02/14 10:26:37;;;;;;;9.07;6.37;;;;;;;6.63;49.76;96039.95;1714409;83;21034;-70
2022/02/14 10:29:21;;;;;;;12.17;7.37;;;;;;;6.73;48.57;96035.18;1720012;83;21098;-70
2022/02/14 10:31:58;;;;;;;13.77;8.47;;;;;;;6.88;49.59;96031.29;1721226;83;21094;-70
2022/02/14 10:34:43;;;;;;;10.33;7.47;;;;;;;7.12;48.42;96032.20;1721543;83;21082;-70
2022/02/14 10:37:14;;;;;;;15.70;8.90;;;;;;;7.47;47.82;96025.68;1721487;83;21023;-70
2022/02/14 10:39:43;;;;;;;11.83;7.90;;;;;;;7.83;47.25;96020.41;1721823;83;21027;-69
2022/02/14 10:42:18;;;;;;;12.27;7.60;;;;;;;8.22;45.25;96009.83;1720901;83;21082;-69
2022/02/14 10:45:08;;;;;;;12.77;8.40;;;;;;;8.53;44.53;96008.89;1721917;83;21496;-69
2022/02/14 10:47:42;;;;;;;11.77;7.40;;;;;;;8.77;44.09;95999.58;1720416;83;21039;-70
2022/02/14 10:50:17;;;;;;;10.67;7.83;;;;;;;9.12;43.55;96002.87;1720836;83;21019;-69
2022/02/14 10:52:53;;;;;;;8.90;7.03;;;;;;;9.44;43.91;95997.39;1721256;83;21014;-69
2022/02/14 10:55:34;;;;;;;11.23;8.60;;;;;;;9.70;42.35;95996.74;1721500;83;21014;-69
2022/02/14 10:58:02;;;;;;;9.70;7.15;;;;;;;10.08;42.41;95997.24;1693547;83;21067;-67
2022/02/14 11:00:36;;;;;;;10.93;7.00;;;;;;;10.47;42.75;95981.47;1721568;83;21058;-66
2022/02/14 11:03:08;;;;;;;11.33;6.75;;;;;;;10.49;37.64;95978.37;1721199;83;21078;-66
2022/02/14 11:05:38;;;;;;;10.60;7.22;;;;;;;10.74;36.75;95973.66;1721670;83;21504;-67
2022/02/14 11:08:05;;;;;;;15.45;7.83;;;;;;;10.74;36.25;95977.61;1721772;83;21026;-67
2022/02/14 11:10:32;;;;;;;17.20;6.70;;;;;;;11.17;38.17;95973.05;1721898;83;21015;-66
2022/02/14 11:13:01;;;;;;;17.35;6.67;;;;;;;11.30;36.32;95962.30;1721743;83;21075;-66
2022/02/14 11:15:34;;;;;;;9.78;6.05;;;;;;;11.59;37.12;95964.04;1721762;83;21063;-67
2022/02/14 11:18:15;;;;;;;9.98;7.25;;;;;;;11.86;36.41;95958.73;1722017;83;20995;-67
2022/02/14 11:20:44;;;;;;;11.63;6.25;;;;;;;12.06;33.30;95950.44;1730149;83;21049;-67
2022/02/14 11:23:14;;;;;;;9.10;6.25;;;;;;;12.30;34.75;95949.57;1716377;83;21035;-68
2022/02/14 11:26:13;;;;;;;8.15;6.40;;;;;;;12.33;34.67;95950.37;1716447;84;21031;-68
2022/02/14 11:28:48;;;;;;;12.30;6.97;;;;;;;12.82;33.54;95951.12;1716391;84;21003;-68